sensor_id;sensor_type;location;lat;lon;timestamp;temperature;humidity
69626;DHT22;56847;51.984;5.088;2023-02-27T00:01:16;5.70;64.30
69626;DHT22;56847;51.984;5.088;2023-02-27T00:03:43;5.70;64.40
69626;DHT22;56847;51.984;5.088;2023-02-27T00:06:10;5.70;64.40
69626;DHT22;56847;51.984;5.088;2023-02-27T00:08:37;5.70;64.40
69626;DHT22;56847;51.984;5.088;2023-02-27T00:11:04;5.70;64.40
69626;DHT22;56847;51.984;5.088;2023-02-27T00:13:34;5.70;64.40
69626;DHT22;56847;51.984;5.088;2023-02-27T00:16:01;5.70;64.40
69626;DHT22;56847;51.984;5.088;2023-02-27T00:18:28;5.70;64.40
69626;DHT22;56847;51.984;5.088;2023-02-27T00:20:58;5.70;64.40
69626;DHT22;56847;51.984;5.088;2023-02-27T00:23:25;5.70;64.40
69626;DHT22;56847;51.984;5.088;2023-02-27T00:25:53;5.70;64.30
69626;DHT22;56847;51.984;5.088;2023-02-27T00:28:21;5.70;64.20
69626;DHT22;56847;51.984;5.088;2023-02-27T00:30:48;5.60;64.30
69626;DHT22;56847;51.984;5.088;2023-02-27T00:33:16;5.60;64.30
69626;DHT22;56847;51.984;5.088;2023-02-27T00:35:43;5.60;64.40
69626;DHT22;56847;51.984;5.088;2023-02-27T00:38:10;5.60;64.40
69626;DHT22;56847;51.984;5.088;2023-02-27T00:40:37;5.60;64.50
69626;DHT22;56847;51.984;5.088;2023-02-27T00:43:04;5.60;64.50
69626;DHT22;56847;51.984;5.088;2023-02-27T00:45:30;5.50;64.60
69626;DHT22;56847;51.984;5.088;2023-02-27T00:47:57;5.50;64.60
69626;DHT22;56847;51.984;5.088;2023-02-27T00:50:24;5.50;64.50
69626;DHT22;56847;51.984;5.088;2023-02-27T00:52:51;5.50;64.40
69626;DHT22;56847;51.984;5.088;2023-02-27T00:55:19;5.40;64.40
69626;DHT22;56847;51.984;5.088;2023-02-27T00:57:46;5.40;64.40
69626;DHT22;56847;51.984;5.088;2023-02-27T01:00:13;5.30;64.40
69626;DHT22;56847;51.984;5.088;2023-02-27T01:02:40;5.30;64.40
69626;DHT22;56847;51.984;5.088;2023-02-27T01:05:08;5.20;64.50
69626;DHT22;56847;51.984;5.088;2023-02-27T01:07:36;5.20;64.60
69626;DHT22;56847;51.984;5.088;2023-02-27T01:10:07;5.20;64.70
69626;DHT22;56847;51.984;5.088;2023-02-27T01:12:37;5.10;64.70
69626;DHT22;56847;51.984;5.088;2023-02-27T01:15:05;5.10;64.80
69626;DHT22;56847;51.984;5.088;2023-02-27T01:17:32;5.10;64.80
69626;DHT22;56847;51.984;5.088;2023-02-27T01:20:03;5.00;64.80
69626;DHT22;56847;51.984;5.088;2023-02-27T01:22:31;5.00;64.80
69626;DHT22;56847;51.984;5.088;2023-02-27T01:24:59;5.00;64.90
69626;DHT22;56847;51.984;5.088;2023-02-27T01:27:26;5.00;64.80
69626;DHT22;56847;51.984;5.088;2023-02-27T01:29:53;5.00;64.90
69626;DHT22;56847;51.984;5.088;2023-02-27T01:32:22;4.90;64.90
69626;DHT22;56847;51.984;5.088;2023-02-27T01:34:49;4.90;65.00
69626;DHT22;56847;51.984;5.088;2023-02-27T01:37:17;4.90;65.00
69626;DHT22;56847;51.984;5.088;2023-02-27T01:39:44;5.00;65.10
69626;DHT22;56847;51.984;5.088;2023-02-27T01:42:23;5.00;65.10
69626;DHT22;56847;51.984;5.088;2023-02-27T01:47:30;5.00;65.20
69626;DHT22;56847;51.984;5.088;2023-02-27T01:49:58;5.00;65.00
69626;DHT22;56847;51.984;5.088;2023-02-27T01:52:26;4.90;65.00
69626;DHT22;56847;51.984;5.088;2023-02-27T01:54:54;4.90;65.00
69626;DHT22;56847;51.984;5.088;2023-02-27T01:57:21;4.80;65.00
69626;DHT22;56847;51.984;5.088;2023-02-27T01:59:48;4.80;65.20
69626;DHT22;56847;51.984;5.088;2023-02-27T02:02:21;4.70;65.20
69626;DHT22;56847;51.984;5.088;2023-02-27T02:04:50;4.70;65.30
69626;DHT22;56847;51.984;5.088;2023-02-27T02:07:18;4.60;65.30
69626;DHT22;56847;51.984;5.088;2023-02-27T02:09:51;4.60;65.50
69626;DHT22;56847;51.984;5.088;2023-02-27T02:12:23;4.60;65.50
69626;DHT22;56847;51.984;5.088;2023-02-27T02:14:50;4.50;65.50
69626;DHT22;56847;51.984;5.088;2023-02-27T02:40:57;4.20;66.30
69626;DHT22;56847;51.984;5.088;2023-02-27T02:43:59;4.20;66.30
69626;DHT22;56847;51.984;5.088;2023-02-27T02:46:45;4.20;66.40
69626;DHT22;56847;51.984;5.088;2023-02-27T02:49:24;4.10;66.40
69626;DHT22;56847;51.984;5.088;2023-02-27T02:54:51;4.10;66.80
69626;DHT22;56847;51.984;5.088;2023-02-27T02:57:36;4.10;66.80
69626;DHT22;56847;51.984;5.088;2023-02-27T03:00:14;4.10;66.90
69626;DHT22;56847;51.984;5.088;2023-02-27T03:02:53;4.10;66.90
69626;DHT22;56847;51.984;5.088;2023-02-27T03:05:25;4.00;66.90
69626;DHT22;56847;51.984;5.088;2023-02-27T03:07:59;4.00;66.90
69626;DHT22;56847;51.984;5.088;2023-02-27T03:10:48;4.00;67.10
69626;DHT22;56847;51.984;5.088;2023-02-27T03:18:44;4.00;67.20
69626;DHT22;56847;51.984;5.088;2023-02-27T03:21:33;4.00;67.30
69626;DHT22;56847;51.984;5.088;2023-02-27T03:24:06;4.00;67.30
69626;DHT22;56847;51.984;5.088;2023-02-27T03:26:39;3.90;67.30
69626;DHT22;56847;51.984;5.088;2023-02-27T03:29:11;3.90;67.30
69626;DHT22;56847;51.984;5.088;2023-02-27T03:31:57;3.90;67.40
69626;DHT22;56847;51.984;5.088;2023-02-27T03:34:32;3.90;67.60
69626;DHT22;56847;51.984;5.088;2023-02-27T03:40:23;3.90;67.70
69626;DHT22;56847;51.984;5.088;2023-02-27T03:43:00;3.90;67.70
69626;DHT22;56847;51.984;5.088;2023-02-27T03:45:49;3.90;67.70
69626;DHT22;56847;51.984;5.088;2023-02-27T03:48:19;3.80;67.60
69626;DHT22;56847;51.984;5.088;2023-02-27T03:50:46;3.80;67.60
69626;DHT22;56847;51.984;5.088;2023-02-27T03:53:39;3.80;67.60
69626;DHT22;56847;51.984;5.088;2023-02-27T03:56:08;3.80;67.60
69626;DHT22;56847;51.984;5.088;2023-02-27T03:58:36;3.70;67.70
69626;DHT22;56847;51.984;5.088;2023-02-27T04:01:03;3.70;67.70
69626;DHT22;56847;51.984;5.088;2023-02-27T04:03:38;3.70;67.80
69626;DHT22;56847;51.984;5.088;2023-02-27T04:06:08;3.70;67.80
69626;DHT22;56847;51.984;5.088;2023-02-27T04:09:00;3.70;67.90
69626;DHT22;56847;51.984;5.088;2023-02-27T04:17:15;3.60;68.00
69626;DHT22;56847;51.984;5.088;2023-02-27T04:33:28;3.60;68.50
69626;DHT22;56847;51.984;5.088;2023-02-27T04:36:45;3.60;68.50
69626;DHT22;56847;51.984;5.088;2023-02-27T04:39:30;3.60;68.50
69626;DHT22;56847;51.984;5.088;2023-02-27T04:42:10;3.50;68.60
69626;DHT22;56847;51.984;5.088;2023-02-27T04:44:39;3.50;68.60
69626;DHT22;56847;51.984;5.088;2023-02-27T04:47:09;3.50;68.60
69626;DHT22;56847;51.984;5.088;2023-02-27T04:49:47;3.50;68.70
69626;DHT22;56847;51.984;5.088;2023-02-27T04:54:50;3.50;68.80
69626;DHT22;56847;51.984;5.088;2023-02-27T04:57:23;3.50;68.80
69626;DHT22;56847;51.984;5.088;2023-02-27T04:59:53;3.50;68.80
69626;DHT22;56847;51.984;5.088;2023-02-27T05:02:28;3.50;68.80
69626;DHT22;56847;51.984;5.088;2023-02-27T05:05:02;3.50;68.90
69626;DHT22;56847;51.984;5.088;2023-02-27T05:07:38;3.50;68.90
69626;DHT22;56847;51.984;5.088;2023-02-27T05:10:13;3.50;69.10
69626;DHT22;56847;51.984;5.088;2023-02-27T05:12:45;3.50;69.10
69626;DHT22;56847;51.984;5.088;2023-02-27T05:15:23;3.50;69.20
69626;DHT22;56847;51.984;5.088;2023-02-27T05:17:58;3.50;69.30
69626;DHT22;56847;51.984;5.088;2023-02-27T05:20:36;3.50;69.30
69626;DHT22;56847;51.984;5.088;2023-02-27T08:34:49;5.80;69.40
69626;DHT22;56847;51.984;5.088;2023-02-27T08:37:15;5.90;69.50
69626;DHT22;56847;51.984;5.088;2023-02-27T08:39:42;6.00;69.10
69626;DHT22;56847;51.984;5.088;2023-02-27T08:42:09;6.00;68.60
69626;DHT22;56847;51.984;5.088;2023-02-27T08:44:36;6.10;69.00
69626;DHT22;56847;51.984;5.088;2023-02-27T08:47:03;6.20;68.70
69626;DHT22;56847;51.984;5.088;2023-02-27T08:49:30;6.30;68.50
69626;DHT22;56847;51.984;5.088;2023-02-27T08:51:57;6.30;68.00
69626;DHT22;56847;51.984;5.088;2023-02-27T08:54:24;6.40;67.80
69626;DHT22;56847;51.984;5.088;2023-02-27T08:56:51;6.40;67.30
69626;DHT22;56847;51.984;5.088;2023-02-27T08:59:18;6.50;67.40
69626;DHT22;56847;51.984;5.088;2023-02-27T09:01:45;6.50;67.30
69626;DHT22;56847;51.984;5.088;2023-02-27T09:04:12;6.60;66.70
69626;DHT22;56847;51.984;5.088;2023-02-27T09:06:39;6.60;66.50
69626;DHT22;56847;51.984;5.088;2023-02-27T09:09:06;6.60;66.90
69626;DHT22;56847;51.984;5.088;2023-02-27T09:11:33;6.70;66.50
69626;DHT22;56847;51.984;5.088;2023-02-27T09:14:00;6.80;66.50
69626;DHT22;56847;51.984;5.088;2023-02-27T09:16:27;6.90;66.60
69626;DHT22;56847;51.984;5.088;2023-02-27T09:18:54;7.00;66.60
69626;DHT22;56847;51.984;5.088;2023-02-27T09:21:21;7.10;66.70
69626;DHT22;56847;51.984;5.088;2023-02-27T09:23:51;7.30;66.80
69626;DHT22;56847;51.984;5.088;2023-02-27T09:26:18;7.50;66.40
69626;DHT22;56847;51.984;5.088;2023-02-27T09:28:48;7.60;66.10
69626;DHT22;56847;51.984;5.088;2023-02-27T09:31:15;7.60;65.90
69626;DHT22;56847;51.984;5.088;2023-02-27T09:33:43;7.70;65.70
69626;DHT22;56847;51.984;5.088;2023-02-27T09:36:10;7.80;65.20
69626;DHT22;56847;51.984;5.088;2023-02-27T09:38:37;7.90;64.80
69626;DHT22;56847;51.984;5.088;2023-02-27T09:41:25;7.90;64.50
69626;DHT22;56847;51.984;5.088;2023-02-27T09:43:55;8.00;64.20
69626;DHT22;56847;51.984;5.088;2023-02-27T09:46:22;8.00;63.40
69626;DHT22;56847;51.984;5.088;2023-02-27T09:48:55;8.00;63.80
69626;DHT22;56847;51.984;5.088;2023-02-27T09:51:23;8.10;64.10
69626;DHT22;56847;51.984;5.088;2023-02-27T09:53:55;8.10;63.80
69626;DHT22;56847;51.984;5.088;2023-02-27T09:56:32;8.20;64.00
69626;DHT22;56847;51.984;5.088;2023-02-27T09:59:25;8.30;64.00
69626;DHT22;56847;51.984;5.088;2023-02-27T10:04:53;8.50;62.80
69626;DHT22;56847;51.984;5.088;2023-02-27T10:10:55;8.60;62.40
69626;DHT22;56847;51.984;5.088;2023-02-27T10:13:41;8.70;62.80
69626;DHT22;56847;51.984;5.088;2023-02-27T10:16:13;8.90;61.10
69626;DHT22;56847;51.984;5.088;2023-02-27T10:18:50;8.80;60.60
69626;DHT22;56847;51.984;5.088;2023-02-27T10:21:23;8.80;59.80
69626;DHT22;56847;51.984;5.088;2023-02-27T10:24:00;8.80;59.00
69626;DHT22;56847;51.984;5.088;2023-02-27T10:26:32;8.90;59.00
69626;DHT22;56847;51.984;5.088;2023-02-27T10:31:40;9.00;58.20
69626;DHT22;56847;51.984;5.088;2023-02-27T10:34:12;9.00;57.50
69626;DHT22;56847;51.984;5.088;2023-02-27T10:36:44;9.10;57.70
69626;DHT22;56847;51.984;5.088;2023-02-27T10:39:15;9.10;57.70
69626;DHT22;56847;51.984;5.088;2023-02-27T10:41:44;9.20;57.60
69626;DHT22;56847;51.984;5.088;2023-02-27T10:44:16;9.30;57.30
69626;DHT22;56847;51.984;5.088;2023-02-27T10:46:46;9.40;57.20
69626;DHT22;56847;51.984;5.088;2023-02-27T10:49:19;9.60;56.50
69626;DHT22;56847;51.984;5.088;2023-02-27T10:52:09;9.60;54.80
69626;DHT22;56847;51.984;5.088;2023-02-27T10:54:39;9.60;55.30
69626;DHT22;56847;51.984;5.088;2023-02-27T10:59:59;9.80;56.00
69626;DHT22;56847;51.984;5.088;2023-02-27T11:02:38;9.90;55.10
69626;DHT22;56847;51.984;5.088;2023-02-27T11:05:23;10.10;54.60
69626;DHT22;56847;51.984;5.088;2023-02-27T11:07:52;10.30;55.20
69626;DHT22;56847;51.984;5.088;2023-02-27T11:10:25;10.50;54.00
69626;DHT22;56847;51.984;5.088;2023-02-27T11:13:01;10.70;53.60
69626;DHT22;56847;51.984;5.088;2023-02-27T11:15:33;10.70;53.10
69626;DHT22;56847;51.984;5.088;2023-02-27T11:18:25;10.70;52.80
69626;DHT22;56847;51.984;5.088;2023-02-27T11:20:54;10.80;52.00
69626;DHT22;56847;51.984;5.088;2023-02-27T11:23:34;10.70;51.90
69626;DHT22;56847;51.984;5.088;2023-02-27T11:26:15;10.80;52.20
69626;DHT22;56847;51.984;5.088;2023-02-27T11:28:43;10.80;51.60
69626;DHT22;56847;51.984;5.088;2023-02-27T11:31:19;10.70;50.30
69626;DHT22;56847;51.984;5.088;2023-02-27T11:33:53;10.50;50.20
69626;DHT22;56847;51.984;5.088;2023-02-27T11:36:21;10.40;50.60
69626;DHT22;56847;51.984;5.088;2023-02-27T11:38:54;10.20;50.00
69626;DHT22;56847;51.984;5.088;2023-02-27T11:41:32;10.10;50.30
69626;DHT22;56847;51.984;5.088;2023-02-27T11:44:01;10.00;50.20
69626;DHT22;56847;51.984;5.088;2023-02-27T11:46:31;10.00;50.90
69626;DHT22;56847;51.984;5.088;2023-02-27T11:52:16;10.10;50.40
69626;DHT22;56847;51.984;5.088;2023-02-27T11:54:51;10.00;50.50
69626;DHT22;56847;51.984;5.088;2023-02-27T11:57:23;9.90;50.30
69626;DHT22;56847;51.984;5.088;2023-02-27T11:59:56;9.80;50.90
69626;DHT22;56847;51.984;5.088;2023-02-27T12:05:29;9.60;50.60
69626;DHT22;56847;51.984;5.088;2023-02-27T12:11:12;9.30;50.50
69626;DHT22;56847;51.984;5.088;2023-02-27T12:13:44;9.30;50.90
69626;DHT22;56847;51.984;5.088;2023-02-27T12:21:42;9.70;50.20
69626;DHT22;56847;51.984;5.088;2023-02-27T12:27:45;9.90;50.50
69626;DHT22;56847;51.984;5.088;2023-02-27T12:30:21;9.90;49.60
69626;DHT22;56847;51.984;5.088;2023-02-27T12:35:41;10.00;49.50
69626;DHT22;56847;51.984;5.088;2023-02-27T12:38:12;10.00;49.50
69626;DHT22;56847;51.984;5.088;2023-02-27T12:55:25;10.10;48.30
69626;DHT22;56847;51.984;5.088;2023-02-27T13:00:59;9.90;48.30
69626;DHT22;56847;51.984;5.088;2023-02-27T13:09:30;9.80;48.20
69626;DHT22;56847;51.984;5.088;2023-02-27T13:12:17;9.80;47.10
69626;DHT22;56847;51.984;5.088;2023-02-27T13:14:48;9.80;47.00
69626;DHT22;56847;51.984;5.088;2023-02-27T13:17:24;9.80;47.80
69626;DHT22;56847;51.984;5.088;2023-02-27T13:25:15;10.20;47.40
69626;DHT22;56847;51.984;5.088;2023-02-27T13:27:51;10.40;47.30
69626;DHT22;56847;51.984;5.088;2023-02-27T13:30:26;10.60;47.40
69626;DHT22;56847;51.984;5.088;2023-02-27T13:36:10;10.60;47.90
69626;DHT22;56847;51.984;5.088;2023-02-27T13:38:54;10.60;48.40
69626;DHT22;56847;51.984;5.088;2023-02-27T13:43:55;10.40;48.20
69626;DHT22;56847;51.984;5.088;2023-02-27T13:46:32;10.30;48.00
69626;DHT22;56847;51.984;5.088;2023-02-27T14:01:59;10.50;49.60
69626;DHT22;56847;51.984;5.088;2023-02-27T14:04:32;10.60;49.50
69626;DHT22;56847;51.984;5.088;2023-02-27T14:07:10;10.60;49.40
69626;DHT22;56847;51.984;5.088;2023-02-27T14:09:40;10.60;49.30
69626;DHT22;56847;51.984;5.088;2023-02-27T14:12:31;10.70;49.40
69626;DHT22;56847;51.984;5.088;2023-02-27T14:17:45;10.50;48.50
69626;DHT22;56847;51.984;5.088;2023-02-27T14:23:14;10.20;48.60
69626;DHT22;56847;51.984;5.088;2023-02-27T14:28:40;10.10;49.70
69626;DHT22;56847;51.984;5.088;2023-02-27T14:31:34;10.10;49.90
69626;DHT22;56847;51.984;5.088;2023-02-27T14:34:03;10.10;49.50
69626;DHT22;56847;51.984;5.088;2023-02-27T14:36:52;10.20;50.00
69626;DHT22;56847;51.984;5.088;2023-02-27T14:39:29;10.70;49.10
69626;DHT22;56847;51.984;5.088;2023-02-27T14:44:46;11.90;47.50
69626;DHT22;56847;51.984;5.088;2023-02-27T14:47:35;12.10;46.10
69626;DHT22;56847;51.984;5.088;2023-02-27T14:50:05;12.00;46.00
69626;DHT22;56847;51.984;5.088;2023-02-27T14:52:41;11.50;46.00
69626;DHT22;56847;51.984;5.088;2023-02-27T14:57:53;10.80;47.20
69626;DHT22;56847;51.984;5.088;2023-02-27T15:00:35;10.50;47.70
69626;DHT22;56847;51.984;5.088;2023-02-27T15:06:40;10.10;48.40
69626;DHT22;56847;51.984;5.088;2023-02-27T15:09:36;10.10;48.90
69626;DHT22;56847;51.984;5.088;2023-02-27T15:12:04;10.20;49.40
69626;DHT22;56847;51.984;5.088;2023-02-27T15:14:34;10.30;49.90
69626;DHT22;56847;51.984;5.088;2023-02-27T15:17:12;10.40;49.90
69626;DHT22;56847;51.984;5.088;2023-02-27T15:19:49;10.50;49.20
69626;DHT22;56847;51.984;5.088;2023-02-27T15:22:25;10.40;48.10
69626;DHT22;56847;51.984;5.088;2023-02-27T15:25:05;10.20;48.60
69626;DHT22;56847;51.984;5.088;2023-02-27T15:27:34;10.00;48.90
69626;DHT22;56847;51.984;5.088;2023-02-27T15:30:03;9.90;48.60
69626;DHT22;56847;51.984;5.088;2023-02-27T15:34:59;9.80;49.20
69626;DHT22;56847;51.984;5.088;2023-02-27T15:37:32;9.70;49.10
69626;DHT22;56847;51.984;5.088;2023-02-27T15:40:03;9.70;49.60
69626;DHT22;56847;51.984;5.088;2023-02-27T15:42:36;9.70;48.90
69626;DHT22;56847;51.984;5.088;2023-02-27T15:45:06;9.70;48.90
69626;DHT22;56847;51.984;5.088;2023-02-27T15:47:34;9.70;49.30
69626;DHT22;56847;51.984;5.088;2023-02-27T15:53:02;9.50;49.70
69626;DHT22;56847;51.984;5.088;2023-02-27T15:55:48;9.50;49.80
69626;DHT22;56847;51.984;5.088;2023-02-27T15:58:25;9.60;50.10
69626;DHT22;56847;51.984;5.088;2023-02-27T16:03:29;9.70;50.30
69626;DHT22;56847;51.984;5.088;2023-02-27T16:05:59;9.80;50.30
69626;DHT22;56847;51.984;5.088;2023-02-27T16:08:28;9.80;50.40
69626;DHT22;56847;51.984;5.088;2023-02-27T16:10:55;9.80;50.70
69626;DHT22;56847;51.984;5.088;2023-02-27T16:16:44;9.60;50.50
69626;DHT22;56847;51.984;5.088;2023-02-27T16:18:50;9.50;50.70
69626;DHT22;56847;51.984;5.088;2023-02-27T16:21:23;9.40;50.80
69626;DHT22;56847;51.984;5.088;2023-02-27T16:23:53;9.30;51.10
69626;DHT22;56847;51.984;5.088;2023-02-27T16:26:25;9.20;51.20
69626;DHT22;56847;51.984;5.088;2023-02-27T16:28:59;9.10;51.60
69626;DHT22;56847;51.984;5.088;2023-02-27T16:31:32;9.10;51.60
69626;DHT22;56847;51.984;5.088;2023-02-27T16:36:41;9.00;51.70
69626;DHT22;56847;51.984;5.088;2023-02-27T16:39:12;9.00;51.90
69626;DHT22;56847;51.984;5.088;2023-02-27T16:41:39;8.90;52.00
69626;DHT22;56847;51.984;5.088;2023-02-27T16:44:06;8.90;52.30
69626;DHT22;56847;51.984;5.088;2023-02-27T16:46:32;8.90;52.30
69626;DHT22;56847;51.984;5.088;2023-02-27T16:49:00;8.90;52.50
69626;DHT22;56847;51.984;5.088;2023-02-27T16:51:44;8.80;52.80
69626;DHT22;56847;51.984;5.088;2023-02-27T16:54:11;8.80;52.90
69626;DHT22;56847;51.984;5.088;2023-02-27T16:56:39;8.80;52.90
69626;DHT22;56847;51.984;5.088;2023-02-27T17:02:09;8.70;53.30
69626;DHT22;56847;51.984;5.088;2023-02-27T17:04:37;8.60;53.30
69626;DHT22;56847;51.984;5.088;2023-02-27T17:07:04;8.60;53.50
69626;DHT22;56847;51.984;5.088;2023-02-27T17:09:32;8.50;53.40
69626;DHT22;56847;51.984;5.088;2023-02-27T17:12:00;8.50;53.70
69626;DHT22;56847;51.984;5.088;2023-02-27T17:14:27;8.50;53.80
69626;DHT22;56847;51.984;5.088;2023-02-27T17:16:54;8.40;53.90
69626;DHT22;56847;51.984;5.088;2023-02-27T17:19:21;8.40;53.90
69626;DHT22;56847;51.984;5.088;2023-02-27T17:21:49;8.30;54.10
69626;DHT22;56847;51.984;5.088;2023-02-27T17:24:17;8.30;54.30
69626;DHT22;56847;51.984;5.088;2023-02-27T17:26:44;8.20;54.60
69626;DHT22;56847;51.984;5.088;2023-02-27T17:29:11;8.20;54.80
69626;DHT22;56847;51.984;5.088;2023-02-27T17:31:40;8.10;55.00
69626;DHT22;56847;51.984;5.088;2023-02-27T17:34:07;8.10;55.20
69626;DHT22;56847;51.984;5.088;2023-02-27T17:36:35;8.10;55.20
69626;DHT22;56847;51.984;5.088;2023-02-27T17:39:02;8.00;55.30
69626;DHT22;56847;51.984;5.088;2023-02-27T17:41:30;8.00;55.40
69626;DHT22;56847;51.984;5.088;2023-02-27T17:43:59;7.90;55.70
69626;DHT22;56847;51.984;5.088;2023-02-27T17:46:28;7.90;55.90
69626;DHT22;56847;51.984;5.088;2023-02-27T17:48:56;7.90;56.00
69626;DHT22;56847;51.984;5.088;2023-02-27T17:51:27;7.80;56.20
69626;DHT22;56847;51.984;5.088;2023-02-27T17:53:55;7.80;56.30
69626;DHT22;56847;51.984;5.088;2023-02-27T17:56:23;7.80;56.50
69626;DHT22;56847;51.984;5.088;2023-02-27T17:58:50;7.70;56.70
69626;DHT22;56847;51.984;5.088;2023-02-27T18:01:19;7.70;56.80
69626;DHT22;56847;51.984;5.088;2023-02-27T18:03:48;7.70;57.00
69626;DHT22;56847;51.984;5.088;2023-02-27T18:06:16;7.60;57.20
69626;DHT22;56847;51.984;5.088;2023-02-27T18:08:44;7.60;57.40
69626;DHT22;56847;51.984;5.088;2023-02-27T18:11:13;7.60;57.50
69626;DHT22;56847;51.984;5.088;2023-02-27T18:13:40;7.50;57.70
69626;DHT22;56847;51.984;5.088;2023-02-27T18:16:08;7.40;58.00
69626;DHT22;56847;51.984;5.088;2023-02-27T18:18:40;7.40;58.20
69626;DHT22;56847;51.984;5.088;2023-02-27T18:21:13;7.40;58.30
69626;DHT22;56847;51.984;5.088;2023-02-27T18:23:41;7.30;58.30
69626;DHT22;56847;51.984;5.088;2023-02-27T18:26:15;7.30;58.50
69626;DHT22;56847;51.984;5.088;2023-02-27T18:29:05;7.30;58.60
69626;DHT22;56847;51.984;5.088;2023-02-27T18:31:37;7.30;58.80
69626;DHT22;56847;51.984;5.088;2023-02-27T18:34:05;7.20;59.00
69626;DHT22;56847;51.984;5.088;2023-02-27T18:36:37;7.20;59.10
69626;DHT22;56847;51.984;5.088;2023-02-27T18:39:07;7.20;59.30
69626;DHT22;56847;51.984;5.088;2023-02-27T18:41:34;7.10;59.50
69626;DHT22;56847;51.984;5.088;2023-02-27T18:44:06;7.10;59.70
69626;DHT22;56847;51.984;5.088;2023-02-27T18:46:35;7.10;59.90
69626;DHT22;56847;51.984;5.088;2023-02-27T18:49:04;7.10;59.90
69626;DHT22;56847;51.984;5.088;2023-02-27T18:51:31;7.10;60.10
69626;DHT22;56847;51.984;5.088;2023-02-27T18:53:59;7.10;60.10
69626;DHT22;56847;51.984;5.088;2023-02-27T18:56:28;7.10;60.30
69626;DHT22;56847;51.984;5.088;2023-02-27T18:59:00;7.10;60.40
69626;DHT22;56847;51.984;5.088;2023-02-27T19:01:37;7.10;60.50
69626;DHT22;56847;51.984;5.088;2023-02-27T19:04:11;7.00;60.60
69626;DHT22;56847;51.984;5.088;2023-02-27T19:06:42;7.00;60.80
69626;DHT22;56847;51.984;5.088;2023-02-27T19:09:12;7.00;61.10
69626;DHT22;56847;51.984;5.088;2023-02-27T19:11:45;7.00;61.10
69626;DHT22;56847;51.984;5.088;2023-02-27T19:14:13;7.00;61.30
69626;DHT22;56847;51.984;5.088;2023-02-27T19:16:42;7.00;61.50
69626;DHT22;56847;51.984;5.088;2023-02-27T19:19:09;7.00;61.50
69626;DHT22;56847;51.984;5.088;2023-02-27T19:21:38;7.00;61.70
69626;DHT22;56847;51.984;5.088;2023-02-27T19:24:06;7.00;61.70
69626;DHT22;56847;51.984;5.088;2023-02-27T19:26:35;7.00;61.70
69626;DHT22;56847;51.984;5.088;2023-02-27T19:29:03;7.00;61.70
69626;DHT22;56847;51.984;5.088;2023-02-27T19:31:30;7.00;61.80
69626;DHT22;56847;51.984;5.088;2023-02-27T19:33:57;7.00;62.20
69626;DHT22;56847;51.984;5.088;2023-02-27T19:36:32;7.00;62.30
69626;DHT22;56847;51.984;5.088;2023-02-27T19:39:06;7.00;62.30
69626;DHT22;56847;51.984;5.088;2023-02-27T19:41:33;7.10;62.30
69626;DHT22;56847;51.984;5.088;2023-02-27T19:44:00;7.10;62.30
69626;DHT22;56847;51.984;5.088;2023-02-27T19:46:32;7.10;62.30
69626;DHT22;56847;51.984;5.088;2023-02-27T19:49:03;7.20;62.40
69626;DHT22;56847;51.984;5.088;2023-02-27T19:51:34;7.20;62.40
69626;DHT22;56847;51.984;5.088;2023-02-27T19:54:01;7.20;62.40
69626;DHT22;56847;51.984;5.088;2023-02-27T19:56:28;7.30;62.30
69626;DHT22;56847;51.984;5.088;2023-02-27T19:58:56;7.30;62.40
69626;DHT22;56847;51.984;5.088;2023-02-27T20:01:28;7.30;62.40
69626;DHT22;56847;51.984;5.088;2023-02-27T20:03:57;7.30;62.50
69626;DHT22;56847;51.984;5.088;2023-02-27T20:06:27;7.30;62.60
69626;DHT22;56847;51.984;5.088;2023-02-27T20:08:56;7.30;62.80
69626;DHT22;56847;51.984;5.088;2023-02-27T20:11:28;7.20;62.70
69626;DHT22;56847;51.984;5.088;2023-02-27T20:13:55;7.20;62.80
69626;DHT22;56847;51.984;5.088;2023-02-27T20:16:22;7.20;62.90
69626;DHT22;56847;51.984;5.088;2023-02-27T20:18:52;7.20;63.10
69626;DHT22;56847;51.984;5.088;2023-02-27T20:21:23;7.20;63.10
69626;DHT22;56847;51.984;5.088;2023-02-27T20:23:50;7.20;63.10
69626;DHT22;56847;51.984;5.088;2023-02-27T20:26:20;7.20;63.20
69626;DHT22;56847;51.984;5.088;2023-02-27T20:28:48;7.20;63.30
69626;DHT22;56847;51.984;5.088;2023-02-27T20:31:17;7.20;63.40
69626;DHT22;56847;51.984;5.088;2023-02-27T20:33:47;7.20;63.50
69626;DHT22;56847;51.984;5.088;2023-02-27T20:36:15;7.20;63.50
69626;DHT22;56847;51.984;5.088;2023-02-27T20:38:42;7.30;63.50
69626;DHT22;56847;51.984;5.088;2023-02-27T20:41:12;7.30;63.50
69626;DHT22;56847;51.984;5.088;2023-02-27T20:43:40;7.30;63.50
69626;DHT22;56847;51.984;5.088;2023-02-27T20:46:13;7.20;63.50
69626;DHT22;56847;51.984;5.088;2023-02-27T20:48:41;7.20;63.70
69626;DHT22;56847;51.984;5.088;2023-02-27T20:51:13;7.10;63.50
69626;DHT22;56847;51.984;5.088;2023-02-27T20:53:43;7.10;63.70
69626;DHT22;56847;51.984;5.088;2023-02-27T20:56:17;7.10;63.80
69626;DHT22;56847;51.984;5.088;2023-02-27T20:58:45;7.00;63.90
69626;DHT22;56847;51.984;5.088;2023-02-27T21:01:14;7.00;64.20
69626;DHT22;56847;51.984;5.088;2023-02-27T21:03:42;6.90;64.10
69626;DHT22;56847;51.984;5.088;2023-02-27T21:06:14;6.90;64.20
69626;DHT22;56847;51.984;5.088;2023-02-27T21:09:05;6.90;64.20
69626;DHT22;56847;51.984;5.088;2023-02-27T21:11:33;6.80;64.40
69626;DHT22;56847;51.984;5.088;2023-02-27T21:14:06;6.80;64.40
69626;DHT22;56847;51.984;5.088;2023-02-27T21:16:35;6.70;64.40
69626;DHT22;56847;51.984;5.088;2023-02-27T21:19:03;6.70;64.50
69626;DHT22;56847;51.984;5.088;2023-02-27T21:21:32;6.60;64.50
69626;DHT22;56847;51.984;5.088;2023-02-27T21:24:00;6.60;64.70
69626;DHT22;56847;51.984;5.088;2023-02-27T21:26:34;6.60;64.70
69626;DHT22;56847;51.984;5.088;2023-02-27T21:29:13;6.60;64.80
69626;DHT22;56847;51.984;5.088;2023-02-27T21:31:41;6.50;64.90
69626;DHT22;56847;51.984;5.088;2023-02-27T21:34:15;6.50;65.00
69626;DHT22;56847;51.984;5.088;2023-02-27T21:36:44;6.50;65.00
69626;DHT22;56847;51.984;5.088;2023-02-27T21:39:15;6.40;65.20
69626;DHT22;56847;51.984;5.088;2023-02-27T21:41:42;6.40;65.30
69626;DHT22;56847;51.984;5.088;2023-02-27T21:44:12;6.40;65.30
69626;DHT22;56847;51.984;5.088;2023-02-27T21:46:40;6.30;65.40
69626;DHT22;56847;51.984;5.088;2023-02-27T21:49:08;6.30;65.60
69626;DHT22;56847;51.984;5.088;2023-02-27T21:51:34;6.30;65.60
69626;DHT22;56847;51.984;5.088;2023-02-27T21:54:09;6.30;65.60
69626;DHT22;56847;51.984;5.088;2023-02-27T21:56:37;6.30;65.50
69626;DHT22;56847;51.984;5.088;2023-02-27T21:59:05;6.20;65.70
69626;DHT22;56847;51.984;5.088;2023-02-27T22:01:33;6.20;65.80
69626;DHT22;56847;51.984;5.088;2023-02-27T22:04:00;6.10;65.80
69626;DHT22;56847;51.984;5.088;2023-02-27T22:06:29;6.10;65.90
69626;DHT22;56847;51.984;5.088;2023-02-27T22:09:02;6.10;65.90
69626;DHT22;56847;51.984;5.088;2023-02-27T22:11:31;6.10;66.00
69626;DHT22;56847;51.984;5.088;2023-02-27T22:13:59;6.00;65.90
69626;DHT22;56847;51.984;5.088;2023-02-27T22:16:26;6.00;66.10
69626;DHT22;56847;51.984;5.088;2023-02-27T22:18:53;6.00;66.30